createdAt,value
2022-08-26T00:00:10.312Z,99897.38
2022-08-26T00:02:45.040Z,99896.38
2022-08-26T00:05:18.315Z,99888.44
2022-08-26T00:07:56.532Z,99880.94
2022-08-26T00:10:28.021Z,99893.28
2022-08-26T00:12:56.583Z,99888.44
2022-08-26T00:15:31.144Z,99889.72
2022-08-26T00:18:22.049Z,99891.13
2022-08-26T00:21:06.491Z,99891.69
2022-08-26T00:23:41.446Z,99897.94
2022-08-26T00:26:15.031Z,99889.84
2022-08-26T00:28:53.807Z,99894.97
2022-08-26T00:31:40.843Z,99886.88
2022-08-26T00:34:30.000Z,99888.16
2022-08-26T00:37:16.164Z,99886.44
2022-08-26T00:40:05.374Z,99886.44
2022-08-26T00:42:57.016Z,99880.50
2022-08-26T00:45:35.732Z,99883.63
2022-08-26T00:48:14.667Z,99879.50
2022-08-26T00:50:55.376Z,99876.09
2022-08-26T00:53:32.763Z,99872.84
2022-08-26T00:56:17.655Z,99882.09
2022-08-26T00:59:00.341Z,99875.09
2022-08-26T01:01:41.733Z,99877.25
2022-08-26T01:04:32.393Z,99878.25
2022-08-26T01:07:04.424Z,99883.91
2022-08-26T01:09:44.359Z,99884.59
2022-08-26T01:12:22.132Z,99880.34
2022-08-26T01:15:00.351Z,99883.47
2022-08-26T01:17:35.896Z,99880.66
2022-08-26T01:20:19.534Z,99884.56
2022-08-26T01:22:58.065Z,99872.50
2022-08-26T01:25:46.583Z,99871.91
2022-08-26T01:28:44.159Z,99870.06
2022-08-26T01:31:31.418Z,99866.19
2022-08-26T01:34:12.478Z,99868.47
2022-08-26T01:36:52.422Z,99872.00
2022-08-26T01:39:34.789Z,99872.44
2022-08-26T01:42:19.995Z,99868.59
2022-08-26T01:45:01.639Z,99877.22
2022-08-26T01:47:44.061Z,99872.09
2022-08-26T01:50:28.121Z,99868.72
2022-08-26T01:53:17.454Z,99868.97
2022-08-26T01:55:57.097Z,99868.09
2022-08-26T01:58:41.195Z,99869.94
2022-08-26T02:01:09.818Z,99870.91
2022-08-26T02:03:51.021Z,99864.09
2022-08-26T02:06:25.120Z,99865.19
2022-08-26T02:09:07.319Z,99874.25
2022-08-26T02:11:54.815Z,99868.16
2022-08-26T02:14:44.523Z,99871.06
2022-08-26T02:17:19.250Z,99869.88
2022-08-26T02:19:58.583Z,99872.69
2022-08-26T02:22:38.069Z,99878.78
2022-08-26T02:25:30.312Z,99874.81
2022-08-26T02:28:00.014Z,99869.31
2022-08-26T02:30:32.060Z,99874.09
2022-08-26T02:33:03.797Z,99871.34
2022-08-26T02:35:34.483Z,99871.94
2022-08-26T02:38:03.846Z,99868.38
2022-08-26T02:40:42.268Z,99872.50
2022-08-26T02:43:12.611Z,99863.78
2022-08-26T02:45:41.401Z,99868.50
2022-08-26T02:48:13.505Z,99869.88
2022-08-26T02:50:41.891Z,99872.41
2022-08-26T02:53:12.207Z,99867.88
2022-08-26T02:55:42.340Z,99869.09
2022-08-26T02:58:12.491Z,99869.91
2022-08-26T03:00:53.459Z,99879.34
2022-08-26T03:03:23.531Z,99875.59
2022-08-26T03:05:52.091Z,99870.97
2022-08-26T03:08:20.873Z,99866.03
2022-08-26T03:10:49.966Z,99864.78
2022-08-26T03:13:19.750Z,99874.31
2022-08-26T03:15:47.978Z,99863.56
2022-08-26T03:18:16.443Z,99864.34
2022-08-26T03:20:44.858Z,99858.53
2022-08-26T03:23:13.109Z,99861.56
2022-08-26T03:25:41.325Z,99861.13
2022-08-26T03:28:09.930Z,99853.94
2022-08-26T03:30:45.489Z,99858.59
2022-08-26T03:33:14.872Z,99854.28
2022-08-26T03:35:45.645Z,99851.94
2022-08-26T03:38:13.838Z,99855.09
2022-08-26T03:40:43.661Z,99843.13
2022-08-26T03:43:12.962Z,99853.72
2022-08-26T03:45:43.244Z,99847.38
2022-08-26T03:48:14.561Z,99852.88
2022-08-26T03:50:43.319Z,99854.22
2022-08-26T03:53:13.087Z,99852.94
2022-08-26T03:55:43.187Z,99848.56
2022-08-26T03:58:11.822Z,99851.09
2022-08-26T04:00:40.090Z,99850.25
2022-08-26T04:03:18.497Z,99851.25
2022-08-26T04:05:46.963Z,99852.22
2022-08-26T04:08:15.100Z,99849.53
2022-08-26T04:10:43.755Z,99850.66
2022-08-26T04:13:12.325Z,99845.28
2022-08-26T04:15:40.539Z,99850.38
2022-08-26T04:18:10.163Z,99852.81
2022-08-26T04:20:39.487Z,99850.97
2022-08-26T04:23:07.858Z,99850.97
2022-08-26T04:25:36.231Z,99846.78
2022-08-26T04:28:04.878Z,99851.81
2022-08-26T04:30:33.700Z,99851.97
2022-08-26T04:33:12.639Z,99853.44
2022-08-26T04:35:44.152Z,99845.09
2022-08-26T04:38:12.767Z,99858.13
2022-08-26T04:40:46.596Z,99845.88
2022-08-26T04:43:15.407Z,99844.59
2022-08-26T04:45:44.612Z,99847.88
2022-08-26T04:48:13.707Z,99853.00
2022-08-26T04:50:49.430Z,99846.09
2022-08-26T04:53:17.988Z,99852.81
2022-08-26T04:55:46.448Z,99852.25
2022-08-26T04:58:17.878Z,99850.25
2022-08-26T05:00:46.864Z,99850.00
2022-08-26T05:03:15.547Z,99846.34
2022-08-26T05:05:46.936Z,99853.00
2022-08-26T05:08:17.868Z,99845.63
2022-08-26T05:10:49.237Z,99847.09
2022-08-26T05:13:20.948Z,99854.59
2022-08-26T05:15:50.162Z,99847.69
2022-08-26T05:18:21.244Z,99848.81
2022-08-26T05:20:53.873Z,99852.81
2022-08-26T05:23:25.052Z,99852.09
2022-08-26T05:25:59.198Z,99852.25
2022-08-26T05:28:30.120Z,99852.16
2022-08-26T05:30:58.302Z,99849.34
2022-08-26T05:33:26.520Z,99855.69
2022-08-26T05:35:55.088Z,99855.00
2022-08-26T05:38:24.841Z,99853.41
2022-08-26T05:40:55.250Z,99859.66
2022-08-26T05:43:23.403Z,99860.78
2022-08-26T05:45:52.197Z,99860.03
2022-08-26T05:48:22.763Z,99866.47
2022-08-26T05:50:54.397Z,99865.59
2022-08-26T05:53:26.240Z,99869.41
2022-08-26T05:55:55.675Z,99864.13
2022-08-26T05:58:24.900Z,99866.81
2022-08-26T06:01:03.186Z,99870.44
2022-08-26T06:03:34.616Z,99874.25
2022-08-26T06:06:06.281Z,99875.38
2022-08-26T06:08:37.289Z,99875.47
2022-08-26T06:11:08.442Z,99880.16
2022-08-26T06:13:48.064Z,99874.84
2022-08-26T06:16:19.741Z,99873.13
2022-08-26T06:18:49.280Z,99886.88
2022-08-26T06:21:19.367Z,99874.44
2022-08-26T06:24:08.453Z,99879.78
2022-08-26T06:26:37.505Z,99878.91
2022-08-26T06:29:07.765Z,99881.81
2022-08-26T06:31:37.809Z,99885.47
2022-08-26T06:34:10.878Z,99880.19
2022-08-26T06:36:39.563Z,99882.25
2022-08-26T06:39:11.509Z,99880.09
2022-08-26T06:41:43.380Z,99887.28
2022-08-26T06:44:17.416Z,99882.97
2022-08-26T06:46:45.987Z,99885.72
2022-08-26T06:49:26.887Z,99882.41
2022-08-26T06:51:58.412Z,99884.28
2022-08-26T06:54:30.295Z,99879.66
2022-08-26T06:56:58.958Z,99882.28
2022-08-26T06:59:27.621Z,99885.53
2022-08-26T07:01:56.313Z,99884.06
2022-08-26T07:04:25.199Z,99881.19
2022-08-26T07:07:01.759Z,99882.03
2022-08-26T07:09:33.255Z,99881.38
2022-08-26T07:12:03.921Z,99878.22
2022-08-26T07:14:35.357Z,99875.88
2022-08-26T07:17:03.609Z,99885.19
2022-08-26T07:19:31.991Z,99886.78
2022-08-26T07:22:02.262Z,99890.72
2022-08-26T07:24:35.187Z,99890.53
2022-08-26T07:27:06.312Z,99892.75
2022-08-26T07:29:34.825Z,99891.78
2022-08-26T07:32:03.398Z,99877.09
2022-08-26T07:34:33.097Z,99881.56
2022-08-26T07:37:02.030Z,99872.59
2022-08-26T07:39:31.890Z,99878.88
2022-08-26T07:42:07.500Z,99879.06
2022-08-26T07:44:37.375Z,99877.41
2022-08-26T07:47:19.392Z,99875.72
2022-08-26T07:49:54.982Z,99874.22
2022-08-26T07:52:26.738Z,99872.69
2022-08-26T07:54:56.431Z,99876.09
2022-08-26T07:57:26.546Z,99881.03
2022-08-26T07:59:55.409Z,99867.69
2022-08-26T08:02:24.903Z,99870.41
2022-08-26T08:04:53.202Z,99866.66
2022-08-26T08:07:38.368Z,99869.72
2022-08-26T08:10:13.552Z,99869.06
2022-08-26T08:12:43.576Z,99863.44
2022-08-26T08:15:13.416Z,99858.88
2022-08-26T08:17:43.455Z,99861.94
2022-08-26T08:20:13.193Z,99863.44
2022-08-26T08:22:42.499Z,99860.72
2022-08-26T08:25:12.273Z,99865.13
2022-08-26T08:27:45.144Z,99863.59
2022-08-26T08:30:14.615Z,99860.56
2022-08-26T08:32:44.458Z,99854.81
2022-08-26T08:35:17.515Z,99857.00
2022-08-26T08:37:46.689Z,99854.44
2022-08-26T08:40:18.297Z,99861.19
2022-08-26T08:42:55.313Z,99856.06
2022-08-26T08:45:33.327Z,99853.53
2022-08-26T08:48:07.999Z,99852.81
2022-08-26T08:50:40.868Z,99851.94
2022-08-26T08:53:15.650Z,99850.59
2022-08-26T08:56:00.357Z,99846.50
2022-08-26T08:58:45.287Z,99846.50
2022-08-26T09:01:21.209Z,99852.75
2022-08-26T09:03:56.730Z,99842.69
2022-08-26T09:06:27.662Z,99841.25
2022-08-26T09:08:57.412Z,99835.25
2022-08-26T09:11:26.060Z,99839.44
2022-08-26T09:13:56.744Z,99838.53
2022-08-26T09:16:37.710Z,99845.44
2022-08-26T09:19:15.394Z,99842.34
2022-08-26T09:21:53.288Z,99840.13
2022-08-26T09:24:22.259Z,99838.34
2022-08-26T09:26:52.650Z,99834.91
2022-08-26T09:29:25.717Z,99831.69
2022-08-26T09:31:56.761Z,99832.00
2022-08-26T09:34:27.209Z,99829.38
2022-08-26T09:36:57.272Z,99829.19
2022-08-26T09:39:37.769Z,99825.94
2022-08-26T09:42:12.868Z,99829.09
2022-08-26T09:44:59.780Z,99827.31
2022-08-26T09:47:31.797Z,99823.03
2022-08-26T09:50:09.611Z,99822.94
2022-08-26T09:52:38.135Z,99818.91
2022-08-26T09:55:14.068Z,99826.22
2022-08-26T09:57:48.591Z,99822.19
2022-08-26T10:00:34.231Z,99815.63
2022-08-26T10:03:11.095Z,99816.81
2022-08-26T10:05:48.558Z,99817.22
2022-08-26T10:08:24.845Z,99812.72
2022-08-26T10:10:53.951Z,99813.00
2022-08-26T10:13:26.847Z,99804.91
2022-08-26T10:16:07.064Z,99809.97
2022-08-26T10:18:43.679Z,99804.25
2022-08-26T10:21:17.978Z,99806.56
2022-08-26T10:23:50.635Z,99805.81
2022-08-26T10:26:25.257Z,99802.69
2022-08-26T10:29:01.485Z,99802.97
2022-08-26T10:31:40.487Z,99798.47
2022-08-26T10:34:12.309Z,99788.94
2022-08-26T10:37:14.401Z,99792.56
2022-08-26T10:39:49.177Z,99795.38
2022-08-26T10:42:27.522Z,99781.78
2022-08-26T10:45:02.844Z,99788.06
2022-08-26T10:47:39.392Z,99783.75
2022-08-26T10:50:09.001Z,99784.59
2022-08-26T10:52:52.589Z,99782.75
2022-08-26T10:55:28.603Z,99780.75
2022-08-26T10:58:04.963Z,99778.19
2022-08-26T11:00:58.084Z,99771.47
2022-08-26T11:03:38.934Z,99772.25
2022-08-26T11:06:25.391Z,99769.41
2022-08-26T11:08:54.817Z,99766.91
2022-08-26T11:11:51.137Z,99767.19
2022-08-26T11:14:42.061Z,99775.69
2022-08-26T11:17:57.564Z,99766.00
2022-08-26T11:20:42.068Z,99768.22
2022-08-26T11:23:40.406Z,99767.44
2022-08-26T11:26:37.834Z,99757.84
2022-08-26T11:29:12.054Z,99756.78
2022-08-26T11:31:56.338Z,99753.66
2022-08-26T11:34:53.074Z,99751.78
2022-08-26T11:37:27.475Z,99749.97
2022-08-26T11:39:57.510Z,99748.28
2022-08-26T11:42:37.022Z,99742.44
2022-08-26T11:45:18.538Z,99737.44
2022-08-26T11:47:49.381Z,99741.47
2022-08-26T11:50:21.302Z,99734.53
2022-08-26T11:53:02.471Z,99735.81
2022-08-26T11:55:33.127Z,99731.16
2022-08-26T11:58:02.578Z,99728.44
2022-08-26T12:00:40.379Z,99727.81
2022-08-26T12:03:22.991Z,99725.63
2022-08-26T12:05:53.444Z,99719.47
2022-08-26T12:08:28.497Z,99720.47
2022-08-26T12:11:04.001Z,99713.88
2022-08-26T12:13:32.916Z,99722.97
2022-08-26T12:16:02.687Z,99713.25
2022-08-26T12:18:33.543Z,99714.84
2022-08-26T12:21:12.275Z,99708.00
2022-08-26T12:23:47.361Z,99704.53
2022-08-26T12:26:23.681Z,99704.47
2022-08-26T12:28:55.907Z,99704.41
2022-08-26T12:31:32.466Z,99697.09
2022-08-26T12:34:03.283Z,99689.97
2022-08-26T12:36:33.876Z,99696.75
2022-08-26T12:39:12.728Z,99686.00
2022-08-26T12:41:47.614Z,99691.81
2022-08-26T12:44:36.886Z,99689.59
2022-08-26T12:47:09.400Z,99678.75
2022-08-26T12:49:39.491Z,99692.34
2022-08-26T12:52:29.816Z,99681.34
2022-08-26T12:55:01.341Z,99681.09
2022-08-26T12:57:32.597Z,99682.28
2022-08-26T13:00:40.830Z,99671.41
2022-08-26T13:03:47.771Z,99674.38
2022-08-26T13:06:25.834Z,99670.25
2022-08-26T13:08:55.413Z,99667.38
2022-08-26T13:11:27.989Z,99661.84
2022-08-26T13:13:57.502Z,99663.06
2022-08-26T13:16:26.636Z,99651.91
2022-08-26T13:18:56.933Z,99662.44
2022-08-26T13:21:28.284Z,99656.19
2022-08-26T13:24:06.206Z,99646.50
2022-08-26T13:26:36.410Z,99649.16
2022-08-26T13:29:08.426Z,99650.09
2022-08-26T13:31:40.698Z,99645.22
2022-08-26T13:34:10.432Z,99641.69
2022-08-26T13:36:38.775Z,99635.00
2022-08-26T13:39:07.581Z,99640.88
2022-08-26T13:41:37.513Z,99637.25
2022-08-26T13:44:06.853Z,99631.38
2022-08-26T13:46:35.108Z,99627.41
2022-08-26T13:49:03.988Z,99625.75
2022-08-26T13:51:32.714Z,99622.59
2022-08-26T13:54:01.740Z,99622.50
2022-08-26T13:56:31.053Z,99626.97
2022-08-26T13:59:01.515Z,99619.50
2022-08-26T14:01:31.803Z,99617.69
2022-08-26T14:04:00.287Z,99618.75
2022-08-26T14:06:28.594Z,99622.34
2022-08-26T14:08:56.863Z,99619.47
2022-08-26T14:11:25.281Z,99618.94
2022-08-26T14:13:53.768Z,99607.41
2022-08-26T14:16:27.037Z,99610.97
2022-08-26T14:19:01.501Z,99618.72
2022-08-26T14:21:31.557Z,99627.72
2022-08-26T14:24:01.110Z,99629.00
2022-08-26T14:26:31.657Z,99630.09
2022-08-26T14:29:00.901Z,99629.53
2022-08-26T14:31:33.193Z,99631.06
2022-08-26T14:34:05.881Z,99638.13
2022-08-26T14:36:35.248Z,99630.00
2022-08-26T14:39:08.148Z,99628.75
2022-08-26T14:41:53.796Z,99623.78
2022-08-26T14:44:27.478Z,99637.53
2022-08-26T14:46:57.214Z,99635.25
2022-08-26T14:49:27.378Z,99625.13
2022-08-26T14:51:56.649Z,99630.25
2022-08-26T14:54:24.032Z,99629.75
2022-08-26T14:56:55.107Z,99627.72
2022-08-26T14:59:27.972Z,99622.44
2022-08-26T15:01:58.432Z,99625.91
2022-08-26T15:04:27.048Z,99617.19
2022-08-26T15:06:59.583Z,99614.09
2022-08-26T15:09:28.830Z,99617.66
2022-08-26T15:11:57.222Z,99615.63
2022-08-26T15:14:28.622Z,99615.63
2022-08-26T15:17:00.795Z,99614.41
2022-08-26T15:19:29.626Z,99609.25
2022-08-26T15:21:58.174Z,99607.03
2022-08-26T15:24:30.063Z,99602.66
2022-08-26T15:26:58.746Z,99600.19
2022-08-26T15:29:27.188Z,99595.94
2022-08-26T15:31:57.383Z,99604.97
2022-08-26T15:34:27.238Z,99599.16
2022-08-26T15:36:55.759Z,99592.13
2022-08-26T15:39:24.038Z,99596.72
2022-08-26T15:41:56.128Z,99600.28
2022-08-26T15:44:24.731Z,99596.22
2022-08-26T15:46:58.240Z,99593.84
2022-08-26T15:49:28.608Z,99590.38
2022-08-26T15:51:56.820Z,99582.22
2022-08-26T15:54:25.160Z,99585.28
2022-08-26T15:56:53.849Z,99578.47
2022-08-26T15:59:23.041Z,99578.72
2022-08-26T16:01:52.517Z,99580.50
2022-08-26T16:04:21.268Z,99578.50
2022-08-26T16:06:52.295Z,99574.16
2022-08-26T16:09:24.274Z,99570.78
2022-08-26T16:11:52.981Z,99568.19
2022-08-26T16:14:21.627Z,99565.41
2022-08-26T16:16:50.573Z,99552.88
2022-08-26T16:19:19.274Z,99559.53
2022-08-26T16:21:48.110Z,99558.56
2022-08-26T16:24:18.954Z,99558.69
2022-08-26T16:26:47.337Z,99558.09
2022-08-26T16:29:17.390Z,99561.09
2022-08-26T16:31:45.562Z,99561.44
2022-08-26T16:34:13.680Z,99566.97
2022-08-26T16:36:42.231Z,99561.28
2022-08-26T16:39:10.870Z,99560.66
2022-08-26T16:41:45.789Z,99563.41
2022-08-26T16:44:14.132Z,99564.28
2022-08-26T16:46:42.385Z,99575.00
2022-08-26T16:49:10.585Z,99574.56
2022-08-26T16:51:38.762Z,99577.28
2022-08-26T16:54:07.722Z,99572.44
2022-08-26T16:56:37.427Z,99569.69
2022-08-26T16:59:14.111Z,99562.50
2022-08-26T17:01:42.425Z,99572.03
2022-08-26T17:04:13.280Z,99574.97
2022-08-26T17:06:42.017Z,99573.09
2022-08-26T17:09:10.246Z,99570.38
2022-08-26T17:11:38.490Z,99565.16
2022-08-26T17:14:08.250Z,99564.09
2022-08-26T17:16:36.455Z,99566.41
2022-08-26T17:19:06.724Z,99569.56
2022-08-26T17:21:36.727Z,99563.03
2022-08-26T17:24:06.064Z,99566.84
2022-08-26T17:26:34.414Z,99572.53
2022-08-26T17:29:12.846Z,99571.00
2022-08-26T17:31:43.835Z,99569.50
2022-08-26T17:34:12.044Z,99574.53
2022-08-26T17:36:40.577Z,99578.31
2022-08-26T17:39:08.752Z,99580.97
2022-08-26T17:41:37.023Z,99579.06
2022-08-26T17:44:05.566Z,99578.41
2022-08-26T17:46:38.177Z,99568.69
2022-08-26T17:49:07.527Z,99571.00
2022-08-26T17:51:35.658Z,99579.78
2022-08-26T17:54:04.001Z,99568.19
2022-08-26T17:56:32.429Z,99574.84
2022-08-26T17:59:02.195Z,99571.38
2022-08-26T18:01:32.310Z,99579.94
2022-08-26T18:04:02.048Z,99579.38
2022-08-26T18:06:31.457Z,99586.38
2022-08-26T18:09:00.553Z,99582.72
2022-08-26T18:11:29.369Z,99583.13
2022-08-26T18:13:57.537Z,99582.22
2022-08-26T18:16:25.829Z,99585.72
2022-08-26T18:18:54.133Z,99580.59
2022-08-26T18:21:25.485Z,99575.03
2022-08-26T18:23:54.480Z,99573.47
2022-08-26T18:26:25.304Z,99568.88
2022-08-26T18:28:53.455Z,99571.34
2022-08-26T18:31:22.120Z,99569.59
2022-08-26T18:33:50.348Z,99572.63
2022-08-26T18:36:21.704Z,99577.78
2022-08-26T18:38:52.461Z,99584.84
2022-08-26T18:41:22.767Z,99578.44
2022-08-26T18:43:52.826Z,99576.41
2022-08-26T18:46:22.863Z,99581.19
2022-08-26T18:48:51.415Z,99580.34
2022-08-26T18:51:21.599Z,99586.06
2022-08-26T18:53:51.544Z,99580.81
2022-08-26T18:56:20.348Z,99586.84
2022-08-26T18:58:49.097Z,99591.25
2022-08-26T19:01:18.261Z,99588.81
2022-08-26T19:03:46.758Z,99593.59
2022-08-26T19:06:16.536Z,99584.63
2022-08-26T19:08:44.931Z,99596.13
2022-08-26T19:11:14.682Z,99596.88
2022-08-26T19:13:43.655Z,99602.00
2022-08-26T19:16:16.754Z,99597.63
2022-08-26T19:18:44.999Z,99600.03
2022-08-26T19:21:13.616Z,99603.47
2022-08-26T19:23:42.329Z,99605.25
2022-08-26T19:26:12.146Z,99604.47
2022-08-26T19:28:42.162Z,99605.69
2022-08-26T19:31:11.606Z,99599.78
2022-08-26T19:33:40.616Z,99601.38
2022-08-26T19:36:14.134Z,99605.47
2022-08-26T19:38:43.408Z,99600.44
2022-08-26T19:41:13.903Z,99600.34
2022-08-26T19:43:43.677Z,99598.84
2022-08-26T19:46:17.368Z,99608.00
2022-08-26T19:48:46.159Z,99608.50
2022-08-26T19:51:15.907Z,99609.84
2022-08-26T19:53:44.717Z,99603.41
2022-08-26T19:56:13.879Z,99613.91
2022-08-26T19:58:44.278Z,99605.56
2022-08-26T20:01:13.545Z,99610.84
2022-08-26T20:03:42.457Z,99615.34
2022-08-26T20:06:12.045Z,99611.44
2022-08-26T20:08:41.802Z,99623.84
2022-08-26T20:11:13.235Z,99618.22
2022-08-26T20:13:42.167Z,99624.34
2022-08-26T20:16:13.013Z,99619.44
2022-08-26T20:18:58.995Z,99632.16
2022-08-26T20:21:27.271Z,99621.31
2022-08-26T20:23:57.224Z,99628.31
2022-08-26T20:26:26.106Z,99634.25
2022-08-26T20:28:54.428Z,99637.31
2022-08-26T20:31:26.131Z,99636.97
2022-08-26T20:33:54.819Z,99635.50
2022-08-26T20:36:27.035Z,99634.69
2022-08-26T20:38:56.054Z,99645.19
2022-08-26T20:41:25.425Z,99640.78
2022-08-26T20:43:53.922Z,99637.56
2022-08-26T20:46:25.083Z,99647.88
2022-08-26T20:48:54.188Z,99640.09
2022-08-26T20:51:23.629Z,99644.34
2022-08-26T20:53:52.283Z,99646.91
2022-08-26T20:56:24.350Z,99651.63
2022-08-26T20:58:54.061Z,99653.66
2022-08-26T21:01:26.128Z,99648.09
2022-08-26T21:03:55.708Z,99659.09
2022-08-26T21:06:25.432Z,99662.47
2022-08-26T21:08:54.894Z,99668.59
2022-08-26T21:11:23.144Z,99666.59
2022-08-26T21:14:16.047Z,99662.16
2022-08-26T21:16:42.447Z,99663.03
2022-08-26T21:19:12.199Z,99665.91
2022-08-26T21:21:40.807Z,99657.25
2022-08-26T21:24:09.667Z,99668.81
2022-08-26T21:26:38.340Z,99661.69
2022-08-26T21:29:09.709Z,99663.69
2022-08-26T21:31:44.939Z,99665.22
2022-08-26T21:34:17.253Z,99662.69
2022-08-26T21:36:45.801Z,99659.81
2022-08-26T21:39:14.826Z,99667.59
2022-08-26T21:41:44.288Z,99668.78
2022-08-26T21:44:13.919Z,99663.88
2022-08-26T21:46:43.308Z,99663.03
2022-08-26T21:49:13.895Z,99658.28
2022-08-26T21:51:46.902Z,99657.78
2022-08-26T21:54:17.493Z,99658.97
2022-08-26T21:56:47.729Z,99661.31
2022-08-26T21:59:18.148Z,99663.03
2022-08-26T22:01:46.381Z,99660.97
2022-08-26T22:04:15.036Z,99658.97
2022-08-26T22:06:46.912Z,99661.81
2022-08-26T22:09:16.958Z,99655.91
2022-08-26T22:11:46.389Z,99660.78
2022-08-26T22:14:15.086Z,99654.88
2022-08-26T22:16:45.708Z,99657.75
2022-08-26T22:19:20.032Z,99657.03
2022-08-26T22:21:50.841Z,99651.81
2022-08-26T22:24:20.010Z,99648.25
2022-08-26T22:26:49.201Z,99649.59
2022-08-26T22:29:18.392Z,99649.59
2022-08-26T22:31:47.360Z,99650.44
2022-08-26T22:34:17.484Z,99648.41
2022-08-26T22:36:47.277Z,99649.56
2022-08-26T22:39:18.640Z,99643.81
2022-08-26T22:41:48.592Z,99637.34
2022-08-26T22:44:17.620Z,99646.13
2022-08-26T22:46:46.898Z,99633.09
2022-08-26T22:49:16.972Z,99641.00
2022-08-26T22:51:45.823Z,99636.75
2022-08-26T22:54:14.928Z,99639.31
2022-08-26T22:56:45.632Z,99637.25
2022-08-26T22:59:16.222Z,99634.94
2022-08-26T23:01:46.384Z,99626.59
2022-08-26T23:04:14.933Z,99634.53
2022-08-26T23:06:47.672Z,99625.59
2022-08-26T23:09:18.126Z,99635.66
2022-08-26T23:11:48.844Z,99635.97
2022-08-26T23:14:18.133Z,99629.31
2022-08-26T23:16:47.372Z,99634.69
2022-08-26T23:19:18.311Z,99633.91
2022-08-26T23:21:46.992Z,99635.34
2022-08-26T23:24:15.822Z,99632.22
2022-08-26T23:26:45.039Z,99633.41
2022-08-26T23:29:15.612Z,99630.44
2022-08-26T23:31:43.970Z,99631.91
2022-08-26T23:34:30.065Z,99625.03
2022-08-26T23:36:59.004Z,99620.97
2022-08-26T23:39:28.309Z,99616.84
2022-08-26T23:41:56.940Z,99616.31
2022-08-26T23:44:26.790Z,99614.88
2022-08-26T23:46:55.480Z,99614.31
2022-08-26T23:49:23.884Z,99609.50
2022-08-26T23:52:10.116Z,99613.72
2022-08-26T23:54:38.926Z,99608.03
2022-08-26T23:57:08.274Z,99607.91
2022-08-26T23:59:38.607Z,99610.84
